TAF Text Data
IDs:
Format:
Raw Decoded Include METAR

Data at: 1313 UTC 24 May 2022

Region: TOP
KATL 241141Z 2412/2518 VRB03KT P6SM FEW005 BKN120 OVC250
  TEMPO 2412/2413 BKN005
  FM241400 26004KT P6SM FEW012 BKN025 BKN120
  FM241600 23006KT P6SM VCSH BKN040
  PROB30 2421/2502 4SM TSRA BR OVC035CB
  FM250200 16007KT P6SM VCSH BKN040
  FM250600 10010KT P6SM SCT009 BKN015
  FM251000 10011KT P6SM BKN009


KBOS 241122Z 2412/2518 04012KT P6SM BKN200
  FM241900 08010KT P6SM FEW250
  FM250300 14004KT P6SM FEW200
  FM250600 00000KT P6SM FEW150
  FM251700 11008KT P6SM SCT250


KBWI 241139Z 2412/2518 08006KT 6SM -SHRA SCT035 BKN050 OVC100
  FM241400 09008KT 6SM -SHRA OVC025
  FM241600 09009KT P6SM OVC015
  FM242200 08007KT P6SM BKN035
  FM250500 07005KT P6SM BKN040


KCLE 241125Z 2412/2518 04010KT P6SM SCT250
  FM242300 08005KT P6SM BKN120
  FM251200 13008KT P6SM BKN070


KCLT 241126Z 2412/2518 34006KT 6SM -DZ BR SCT006 OVC012
  TEMPO 2412/2414 BKN006
  FM241400 36005KT P6SM BKN013
  FM241700 02006KT P6SM BKN025
  FM242000 04009KT P6SM SCT030 BKN050
  FM250200 03009KT P6SM BKN025
  FM250600 04007KT P6SM OVC009


KCVG 241130Z 2412/2518 03006KT P6SM SCT035
  FM241500 06008KT P6SM SCT045
  FM250000 08008KT P6SM BKN200
  FM251100 12008KT P6SM VCSH BKN060
  FM251500 15012G18KT P6SM SCT050


KDCA 241139Z 2412/2518 06006KT 6SM -SHRA FEW008 SCT025 OVC040
  FM241500 08007KT P6SM OVC025
  FM250100 07005KT P6SM OVC035
  FM251600 06006KT P6SM BKN050


KDEN 241140Z 2412/2518 03007KT 3SM BR BKN004 BKN040 OVC100
  TEMPO 2413/2414 6SM BR BKN008
  FM241400 05007KT P6SM BKN015 OVC040
  FM241800 05010KT P6SM SCT025 BKN080
  FM242300 07007KT P6SM VCSH SCT030 BKN060
  PROB30 2423/2503 -SHRA BKN030
  FM250300 12007KT P6SM SCT030 BKN060
  FM250600 20007KT P6SM SCT060
  FM251500 29010KT P6SM FEW080


KDFW 241120Z 2412/2518 14012KT P6SM VCSH BKN009 OVC020
  FM241600 16015G25KT P6SM OVC025
  FM242000 17016KT P6SM VCTS BKN035CB
  TEMPO 2423/2503 31015G25KT 2SM +TSRA BKN020CB
  FM250600 31015KT 6SM -RA BKN025
  FM250900 30010KT P6SM BKN015


KDTW 241120Z 2412/2518 04005KT P6SM BKN250
  FM241600 08009KT P6SM FEW060 SCT250
  FM250200 04005KT P6SM SCT250
  FM251400 11012KT P6SM SCT050 BKN250


KEWR 241121Z 2412/2518 08008KT P6SM SCT045 BKN090
  FM241700 14008KT P6SM SCT050 BKN090
  FM250100 12005KT P6SM SCT090
  FM250500 07005KT P6SM SCT080
  FM251500 11007KT P6SM BKN080


KFLL 241120Z 2412/2518 12009KT P6SM FEW020 SCT250
  FM241300 12012G21KT P6SM SCT025
  FM242300 11012KT P6SM SCT050
  FM251400 12012G21KT P6SM BKN025


KIAD 241139Z 2412/2518 03004KT 6SM -SHRA FEW008 BKN020 OVC030
  FM241400 08005KT P6SM OVC008
  FM242100 07006KT P6SM OVC015
  FM250200 00000KT P6SM OVC030
  FM250700 03003KT P6SM BKN040


KIAH 241128Z 2412/2518 10006KT P6SM VCTS SCT008 BKN040CB
  TEMPO 2413/2414 4SM TSRA BR
  FM241600 18010KT P6SM VCTS BKN035CB
  FM241800 18010G20KT P6SM BKN040
  FM250700 16013KT P6SM VCTS BKN013CB
  FM251500 03006KT P6SM BKN018


KJFK 241121Z 2412/2518 08007KT P6SM SCT045 BKN090
  FM241800 13011KT P6SM SCT050 BKN090
  FM242300 12008KT P6SM SCT090
  FM250400 08005KT P6SM SCT080
  FM251500 11008KT P6SM BKN080


KLAS 241120Z 2412/2518 04008KT P6SM FEW250
  FM241800 09005KT P6SM SKC
  FM250500 23005KT P6SM SKC
  FM251600 04006KT P6SM SKC


KLAX 241143Z 2412/2518 11004KT P6SM OVC012
  FM241700 25006KT P6SM BKN010
  FM242100 26012KT P6SM SCT010
  FM250100 26008KT P6SM OVC008
  FM250900 25005KT P6SM OVC012
  FM251600 26008KT P6SM BKN014


KLGA 241121Z 2412/2518 06010KT P6SM SCT045 BKN090
  FM242000 13009KT P6SM SCT050 BKN090
  FM242300 12007KT P6SM SCT090
  FM250600 07006KT P6SM SCT080
  FM251300 07008KT P6SM BKN080


KMCO 241124Z 2412/2518 13003KT P6SM FEW080 BKN250
  FM241500 14008KT P6SM FEW035 BKN250
  FM242100 11011KT P6SM SCT050
  FM250300 13006KT P6SM SCT050 SCT250


KMDW 241120Z 2412/2518 07011G17KT P6SM SCT070 BKN100
  TEMPO 2512/2514 6SM -SHRA BKN035
  FM251400 11013G20KT 4SM SHRA BKN007 OVC015
  PROB30 2514/2518 2SM +RA BKN004 OVC007


KMEM 241138Z 2412/2518 10009KT P6SM OVC011
  TEMPO 2412/2413 OVC009
  FM241500 11009KT P6SM OVC015
  FM241700 13009KT P6SM BKN025
  FM241900 15011KT P6SM VCTS BKN035CB
  TEMPO 2421/2424 3SM TSRA
  FM250200 16012KT P6SM VCSH BKN027 WS020/18045KT
  FM250700 17014G24KT P6SM VCSH BKN012 OVC025
  FM251300 18017G23KT P6SM BKN015


KMIA 241120Z 2412/2518 10009KT P6SM FEW020 SCT250
  FM241300 11012G21KT P6SM SCT025
  FM242300 10010KT P6SM SCT050
  FM251400 12012G21KT P6SM BKN025


KMSP 241128Z 2412/2518 14007KT P6SM SCT080 SCT150
  FM250000 10006KT P6SM SCT040 BKN120
  FM250600 10004KT 6SM -SHRA SCT025 OVC050
  FM250900 08009KT 5SM -RA BR OVC025
  FM251300 07011KT 4SM -RA BR OVC018
  FM251500 06012G21KT 2SM -RA BR OVC010


KORD 241120Z 2412/2518 07011G17KT P6SM SCT070 BKN100
  TEMPO 2512/2514 6SM -SHRA BKN035
  FM251400 11013G20KT 4SM SHRA BKN007 OVC015
  PROB30 2514/2518 2SM +RA BKN004 OVC007


KPDX 241130Z 2412/2512 VRB02KT P6SM BKN025
  FM241600 30004KT P6SM BKN080
  FM250000 16004KT P6SM VCSH OVC050


KPHL 241120Z 2412/2518 11008KT P6SM BKN080 OVC120
  FM241500 10010KT P6SM OVC050
  FM242000 11009KT P6SM BKN060
  FM250000 08006KT P6SM BKN080
  FM251100 06006KT P6SM BKN140
  FM251600 09008KT P6SM BKN150


KPHX 241120Z 2412/2518 30005KT P6SM FEW250
  FM241300 09006KT P6SM SKC
  FM242000 26010G21KT P6SM SKC
  FM250500 28009KT P6SM SKC
  FM251000 10005KT P6SM SKC


KPIT 241133Z 2412/2518 05005KT P6SM SCT100
  FM241700 09006KT P6SM BKN035
  FM250000 09007KT P6SM BKN045


KSAN 241120Z 2412/2518 VRB04KT P6SM OVC014
  FM241900 23009KT P6SM SCT015
  TEMPO 2423/2503 BKN014
  FM250300 22005KT P6SM BKN012
  FM250600 VRB04KT P6SM OVC009
  FM251500 VRB03KT P6SM BKN012
  FM251700 VRB04KT P6SM SCT015


KSEA 241134Z 2412/2518 VRB03KT P6SM OVC022
  FM241700 19006KT P6SM SCT022 BKN035 OVC200
  FM242000 19006KT P6SM BKN050 OVC200
  FM251100 19006KT P6SM OVC020


KSFO 241138Z 2412/2518 29005KT P6SM SKC
  FM241900 31014KT P6SM SKC
  FM242300 28020G28KT P6SM SKC
  FM250300 29015KT P6SM SKC
  FM250600 VRB05KT P6SM SKC


KSLC 241120Z 2412/2518 15004KT P6SM SCT250
  FM241600 34008KT P6SM SCT150
  FM241900 34011G21KT P6SM FEW100 FEW250
  FM250400 15004KT P6SM FEW250


KSTL 241124Z 2412/2518 08005KT P6SM BKN120
  FM241700 10012KT P6SM BKN035
  FM250200 10009KT P6SM VCSH OVC025
  FM250600 11010G18KT P6SM VCSH BKN008
  TEMPO 2506/2510 6SM SHRA
  FM251300 16011G22KT P6SM VCSH OVC013


KTPA 241132Z 2412/2518 15006KT P6SM FEW020 BKN120 BKN200
  FM241900 23010KT P6SM SCT040 BKN200
  FM242300 29008KT P6SM SCT040 BKN200
  FM250200 12005KT P6SM SCT200